Flugplatz Pattonville

Für EDTQ sind keine METAR/TAF Berichte vorhanden.
Es werden die Flugwettermeldungen vom Flugplatz Stuttgart in 19 km Entfernung angezeigt.

Bericht für EDDS

vom 15.10. um 09:20 UTC

Wind 5 kt aus 90°

Sichtweite 10 km oder mehr

gute Sicht, keine Wolken < 5000 ft, keine CB, keine Wettererscheinungen (CAVOK)

Temperatur 18.0°C

Taupunkt 13.0°C

Luftfeuchtigkeit 73%

Luftdruck 1007 hPa

keine wesentliche Wetteränderung innerhalb den nächsten 2 Stunden zu erwarten

EDDS 150920Z 09005KT 060V120 CAVOK 18/13 Q1007 NOSIG

Prognose für EDDS

vom 15.10. um 00:00 UTC

Zwischen 00:00 UTC und 00:00 UTC zeitweise

Sichtweite 2500 m

Nebelschwaden


Zwischen 00:00 UTC und 00:00 UTC

variable Windrichtung mit 3 kt

Sichtweite 10 km oder mehr

keine signifikanten Wettererscheinungen

keine Wolken


Zwischen 00:00 UTC und 00:00 UTC zeitweise mit einer Wahrscheinlichkeit von 30%

Sichtweite 800 m

Nebel


Zwischen 00:00 und 00:00 UTC übergehend zu

Wind 8 kt aus 280°

Sichtweite 10 km oder mehr

keine signifikanten Wettererscheinungen

keine Wolken


Zwischen 00:00 UTC und 00:00 UTC zeitweise

Wind 15 kt aus 280° in Böen 25 kt

Sichtweite 4000 m

Regenschauer

aufgebrochene Bewölkung in 2500 ft


Zwischen 00:00 UTC und 00:00 UTC zeitweise

Regen

TAF EDDS 150500Z 1506/1606 VRB03KT CAVOK TEMPO 1506/1508 2500 BCFG PROB30 TEMPO 1506/1508 0800 FG BECMG 1512/1514 28008KT TEMPO 1515/1519 28015G25KT 4000 SHRA BKN025CB TEMPO 1519/1602 RA
Impressum